createdAt,value
2017-09-04T00:01:58.064Z,100764
2017-09-04T00:04:26.252Z,100769
2017-09-04T00:06:54.366Z,100757
2017-09-04T00:09:22.448Z,100751
2017-09-04T00:11:53.620Z,100751
2017-09-04T00:14:21.715Z,100760
2017-09-04T00:16:49.791Z,100749
2017-09-04T00:19:17.896Z,100750
2017-09-04T00:21:46.908Z,100752
2017-09-04T00:24:14.992Z,100731
2017-09-04T00:26:43.111Z,100757
2017-09-04T00:29:11.209Z,100755
2017-09-04T00:31:43.001Z,100756
2017-09-04T00:34:14.723Z,100757
2017-09-04T00:36:42.910Z,100749
2017-09-04T00:39:11.823Z,100749
2017-09-04T00:41:39.958Z,100743
2017-09-04T00:44:08.056Z,100751
2017-09-04T00:46:39.927Z,100748
2017-09-04T00:49:08.829Z,100753
2017-09-04T00:51:40.815Z,100743
2017-09-04T00:54:09.971Z,100743
2017-09-04T00:56:38.069Z,100754
2017-09-04T00:59:06.189Z,100754
2017-09-04T01:01:34.547Z,100753
2017-09-04T01:04:02.665Z,100749
2017-09-04T01:06:30.771Z,100751
2017-09-04T01:08:58.985Z,100745
2017-09-04T01:11:27.352Z,100747
2017-09-04T01:13:55.696Z,100749
2017-09-04T01:16:23.834Z,100750
2017-09-04T01:18:51.924Z,100748
2017-09-04T01:21:21.039Z,100753
2017-09-04T01:23:49.381Z,100754
2017-09-04T01:26:17.837Z,100744
2017-09-04T01:28:56.152Z,100747
2017-09-04T01:31:24.427Z,100757
2017-09-04T01:33:53.295Z,100750
2017-09-04T01:36:22.253Z,100743
2017-09-04T01:38:50.411Z,100748
2017-09-04T01:41:18.756Z,100739
2017-09-04T01:43:47.771Z,100747
2017-09-04T01:46:16.792Z,100760
2017-09-04T01:48:44.910Z,100760
2017-09-04T01:51:13.028Z,100754
2017-09-04T01:53:41.464Z,100756
2017-09-04T01:56:10.482Z,100754
2017-09-04T01:58:39.364Z,100743
2017-09-04T02:01:07.463Z,100754
2017-09-04T02:03:35.689Z,100753
2017-09-04T02:06:03.808Z,100757
2017-09-04T02:08:31.900Z,100756
2017-09-04T02:11:00.000Z,100762
2017-09-04T02:13:28.094Z,100753
2017-09-04T02:15:56.236Z,100747
2017-09-04T02:18:24.398Z,100756
2017-09-04T02:20:52.547Z,100751
2017-09-04T02:23:20.686Z,100749
2017-09-04T02:25:48.782Z,100752
2017-09-04T02:28:16.867Z,100751
2017-09-04T02:30:44.971Z,100758
2017-09-04T02:33:13.056Z,100751
2017-09-04T02:35:41.445Z,100751
2017-09-04T02:38:09.531Z,100745
2017-09-04T02:40:37.639Z,100762
2017-09-04T02:43:05.748Z,100750
2017-09-04T02:45:33.922Z,100747
2017-09-04T02:48:02.036Z,100757
2017-09-04T02:50:30.372Z,100750
2017-09-04T02:52:58.760Z,100746
2017-09-04T02:55:26.859Z,100751
2017-09-04T02:57:54.973Z,100743
2017-09-04T03:00:23.147Z,100740
2017-09-04T03:02:52.212Z,100728
2017-09-04T03:05:20.309Z,100726
2017-09-04T03:07:48.535Z,100729
2017-09-04T03:10:19.920Z,100730
2017-09-04T03:12:48.183Z,100731
2017-09-04T03:15:16.515Z,100718
2017-09-04T03:17:44.608Z,100736
2017-09-04T03:20:12.719Z,100733
2017-09-04T03:22:40.876Z,100741
2017-09-04T03:25:09.291Z,100731
2017-09-04T03:27:37.392Z,100736
2017-09-04T03:30:05.492Z,100743
2017-09-04T03:32:33.595Z,100751
2017-09-04T03:35:01.680Z,100747
2017-09-04T03:37:29.789Z,100747
2017-09-04T03:39:57.879Z,100750
2017-09-04T03:42:25.991Z,100746
2017-09-04T03:44:54.071Z,100742
2017-09-04T03:47:22.233Z,100748
2017-09-04T03:49:50.333Z,100745
2017-09-04T03:52:18.428Z,100745
2017-09-04T03:54:46.604Z,100744
2017-09-04T03:57:14.715Z,100748
2017-09-04T03:59:43.492Z,100755
2017-09-04T04:02:11.591Z,100757
2017-09-04T04:04:39.674Z,100764
2017-09-04T04:07:08.143Z,100760
2017-09-04T04:09:37.032Z,100760
2017-09-04T04:12:05.166Z,100773
2017-09-04T04:14:33.252Z,100753
2017-09-04T04:17:01.379Z,100761
2017-09-04T04:19:29.479Z,100762
2017-09-04T04:21:57.589Z,100755
2017-09-04T04:24:26.664Z,100765
2017-09-04T04:26:54.782Z,100762
2017-09-04T04:29:26.189Z,100772
2017-09-04T04:31:54.299Z,100763
2017-09-04T04:34:25.871Z,100769
2017-09-04T04:36:53.955Z,100759
2017-09-04T04:39:22.480Z,100763
2017-09-04T04:41:50.920Z,100770
2017-09-04T04:44:19.012Z,100766
2017-09-04T04:46:47.124Z,100768
2017-09-04T04:49:19.339Z,100768
2017-09-04T04:51:47.448Z,100772
2017-09-04T04:54:15.577Z,100773
2017-09-04T04:56:43.915Z,100768
2017-09-04T04:59:12.987Z,100770
2017-09-04T05:01:42.442Z,100771
2017-09-04T05:04:10.840Z,100782
2017-09-04T05:06:38.915Z,100781
2017-09-04T05:09:07.055Z,100777
2017-09-04T05:11:36.387Z,100776
2017-09-04T05:14:08.651Z,100774
2017-09-04T05:16:36.758Z,100775
2017-09-04T05:19:04.837Z,100781
2017-09-04T05:21:33.005Z,100783
2017-09-04T05:24:01.093Z,100775
2017-09-04T05:26:30.224Z,100778
2017-09-04T05:28:58.336Z,100780
2017-09-04T05:31:26.423Z,100780
2017-09-04T05:33:54.746Z,100782
2017-09-04T05:36:22.884Z,100779
2017-09-04T05:38:50.973Z,100782
2017-09-04T05:41:19.075Z,100770
2017-09-04T05:43:47.177Z,100786
2017-09-04T05:46:16.205Z,100780
2017-09-04T05:48:44.315Z,100785
2017-09-04T05:51:12.434Z,100777
2017-09-04T05:53:44.191Z,100786
2017-09-04T05:56:15.889Z,100784
2017-09-04T05:58:44.591Z,100769
2017-09-04T06:01:12.708Z,100785
2017-09-04T06:03:40.817Z,100789
2017-09-04T06:06:08.952Z,100796
2017-09-04T06:08:37.819Z,100779
2017-09-04T06:11:07.051Z,100787
2017-09-04T06:13:35.188Z,100783
2017-09-04T06:16:03.543Z,100775
2017-09-04T06:18:35.794Z,100787
2017-09-04T06:21:03.904Z,100783
2017-09-04T06:23:32.913Z,100781
2017-09-04T06:26:01.039Z,100790
2017-09-04T06:28:29.251Z,100788
2017-09-04T06:30:57.644Z,100779
2017-09-04T06:33:25.832Z,100785
2017-09-04T06:35:53.979Z,100793
2017-09-04T06:38:22.455Z,100790
2017-09-04T06:40:54.412Z,100802
2017-09-04T06:43:22.511Z,100791
2017-09-04T06:45:50.848Z,100797
2017-09-04T06:48:18.968Z,100800
2017-09-04T06:50:47.073Z,100804
2017-09-04T06:53:15.193Z,100820
2017-09-04T06:55:43.363Z,100822
2017-09-04T06:58:11.463Z,100826
2017-09-04T07:00:39.803Z,100827
2017-09-04T07:03:07.947Z,100818
2017-09-04T07:05:36.267Z,100819
2017-09-04T07:08:07.913Z,100821
2017-09-04T07:10:36.724Z,100831
2017-09-04T07:13:05.076Z,100828
2017-09-04T07:15:33.160Z,100826
2017-09-04T07:18:01.559Z,100827
2017-09-04T07:20:30.413Z,100827
2017-09-04T07:22:59.428Z,100843
2017-09-04T07:25:27.523Z,100839
2017-09-04T07:27:55.895Z,100848
2017-09-04T07:30:24.009Z,100844
2017-09-04T07:32:52.356Z,100860
2017-09-04T07:35:20.544Z,100863
2017-09-04T07:37:48.638Z,100852
2017-09-04T07:40:16.759Z,100861
2017-09-04T07:42:44.876Z,100854
2017-09-04T07:45:12.968Z,100850
2017-09-04T07:47:41.087Z,100857
2017-09-04T07:50:09.411Z,100861
2017-09-04T07:52:37.530Z,100863
2017-09-04T07:55:05.668Z,100859
2017-09-04T07:57:33.857Z,100867
2017-09-04T08:00:02.871Z,100863
2017-09-04T08:02:31.942Z,100873
2017-09-04T08:05:03.196Z,100872
2017-09-04T08:07:31.556Z,100869
2017-09-04T08:10:00.587Z,100876
2017-09-04T08:12:28.940Z,100877
2017-09-04T08:14:57.727Z,100878
2017-09-04T08:17:27.147Z,100882
2017-09-04T08:19:55.255Z,100881
2017-09-04T08:22:23.596Z,100884
2017-09-04T08:24:52.012Z,100878
2017-09-04T08:27:20.377Z,100883
2017-09-04T08:29:48.490Z,100892
2017-09-04T08:32:16.656Z,100879
2017-09-04T08:34:46.690Z,100886
2017-09-04T08:37:14.807Z,100888
2017-09-04T08:39:43.035Z,100885
2017-09-04T08:42:11.144Z,100884
2017-09-04T08:44:39.286Z,100883
2017-09-04T08:47:08.344Z,100890
2017-09-04T08:49:36.477Z,100888
2017-09-04T08:52:08.149Z,100878
2017-09-04T08:54:36.292Z,100880
2017-09-04T08:57:04.396Z,100892
2017-09-04T08:59:32.519Z,100886
2017-09-04T09:02:00.643Z,100894
2017-09-04T09:04:28.814Z,100884
2017-09-04T09:06:57.651Z,100875
2017-09-04T09:09:26.778Z,100885
2017-09-04T09:11:54.857Z,100878
2017-09-04T09:14:22.999Z,100886
2017-09-04T09:16:51.154Z,100876
2017-09-04T09:19:19.522Z,100873
2017-09-04T09:21:47.879Z,100875
2017-09-04T09:24:16.009Z,100868
2017-09-04T09:26:44.103Z,100867
2017-09-04T09:29:12.337Z,100866
2017-09-04T09:31:40.780Z,100861
2017-09-04T09:34:08.881Z,100865
2017-09-04T09:36:37.107Z,100869
2017-09-04T09:39:05.221Z,100859
2017-09-04T09:41:33.327Z,100870
2017-09-04T09:44:01.436Z,100866
2017-09-04T09:46:30.267Z,100843
2017-09-04T09:48:58.479Z,100870
2017-09-04T09:51:26.579Z,100869
2017-09-04T09:53:54.684Z,100858
2017-09-04T09:56:22.787Z,100868
2017-09-04T09:58:50.975Z,100873
2017-09-04T10:01:22.736Z,100882
2017-09-04T10:03:50.848Z,100880
2017-09-04T10:06:18.976Z,100881
2017-09-04T10:08:47.076Z,100881
2017-09-04T10:11:15.174Z,100885
2017-09-04T10:13:43.304Z,100880
2017-09-04T10:16:11.387Z,100881
2017-09-04T10:18:39.496Z,100889
2017-09-04T10:21:08.422Z,100890
2017-09-04T10:23:36.591Z,100892
2017-09-04T10:26:04.714Z,100895
2017-09-04T10:28:32.819Z,100890
2017-09-04T10:31:00.911Z,100884
2017-09-04T10:33:29.039Z,100890
2017-09-04T10:35:57.158Z,100894
2017-09-04T10:38:25.256Z,100888
2017-09-04T10:40:53.352Z,100893
2017-09-04T10:43:21.457Z,100887
2017-09-04T10:45:49.550Z,100878
2017-09-04T10:48:17.653Z,100884
2017-09-04T10:50:45.757Z,100888
2017-09-04T10:53:13.835Z,100882
2017-09-04T10:55:41.956Z,100884
2017-09-04T10:58:10.051Z,100884
2017-09-04T11:00:38.186Z,100882
2017-09-04T11:03:06.267Z,100877
2017-09-04T11:05:34.379Z,100882
2017-09-04T11:08:02.490Z,100885
2017-09-04T11:10:30.572Z,100885
2017-09-04T11:12:58.676Z,100884
2017-09-04T11:15:26.922Z,100874
2017-09-04T11:17:55.015Z,100871
2017-09-04T11:20:23.167Z,100874
2017-09-04T11:22:51.252Z,100867
2017-09-04T11:25:19.338Z,100866
2017-09-04T11:27:47.448Z,100860
2017-09-04T11:30:15.548Z,100854
2017-09-04T11:32:43.635Z,100863
2017-09-04T11:35:11.736Z,100873
2017-09-04T11:37:39.849Z,100867
2017-09-04T11:40:08.029Z,100879
2017-09-04T11:42:36.155Z,100879
2017-09-04T11:45:05.292Z,100880
2017-09-04T11:47:33.384Z,100870
2017-09-04T11:50:01.731Z,100869
2017-09-04T11:52:29.820Z,100873
2017-09-04T11:54:57.943Z,100877
2017-09-04T11:57:26.120Z,100882
2017-09-04T11:59:55.147Z,100873
2017-09-04T12:02:23.232Z,100876
2017-09-04T12:04:51.356Z,100872
2017-09-04T12:07:22.717Z,100871
2017-09-04T12:09:50.812Z,100884
2017-09-04T12:12:18.944Z,100878
2017-09-04T12:14:47.033Z,100881
2017-09-04T12:17:15.227Z,100880
2017-09-04T12:19:43.303Z,100877
2017-09-04T12:22:11.398Z,100870
2017-09-04T12:24:39.486Z,100874
2017-09-04T12:27:07.668Z,100875
2017-09-04T12:29:35.765Z,100868
2017-09-04T12:32:03.851Z,100882
2017-09-04T12:34:31.992Z,100881
2017-09-04T12:37:00.094Z,100880
2017-09-04T12:39:28.510Z,100890
2017-09-04T12:41:56.633Z,100891
2017-09-04T12:44:28.383Z,100887
2017-09-04T12:46:56.480Z,100888
2017-09-04T12:49:24.562Z,100884
2017-09-04T12:51:52.686Z,100888
2017-09-04T12:54:24.259Z,100898
2017-09-04T12:56:52.369Z,100897
2017-09-04T12:59:20.528Z,100895
2017-09-04T13:01:48.648Z,100909
2017-09-04T13:04:16.756Z,100912
2017-09-04T13:06:44.836Z,100911
2017-09-04T13:09:12.965Z,100920
2017-09-04T13:11:46.599Z,100919
2017-09-04T13:14:20.167Z,100917
2017-09-04T13:16:53.837Z,100906
2017-09-04T13:19:27.481Z,100908
2017-09-04T13:22:04.551Z,100895
2017-09-04T13:24:38.510Z,100904
2017-09-04T13:27:18.233Z,100906
2017-09-04T13:29:52.688Z,100915
2017-09-04T13:32:26.799Z,100909
2017-09-04T13:35:01.502Z,100911
2017-09-04T13:37:30.770Z,100910
2017-09-04T13:40:04.701Z,100920
2017-09-04T13:42:38.241Z,100917
2017-09-04T13:45:11.030Z,100929
2017-09-04T13:50:43.228Z,100929
2017-09-04T13:53:17.866Z,100913
2017-09-04T13:55:51.719Z,100908
2017-09-04T14:01:27.733Z,100918
2017-09-04T14:04:01.712Z,100913
2017-09-04T14:06:30.220Z,100921
2017-09-04T14:09:04.892Z,100922
2017-09-04T14:11:39.703Z,100921
2017-09-04T14:14:13.547Z,100934
2017-09-04T14:16:47.497Z,100928
2017-09-04T14:19:15.596Z,100934
2017-09-04T14:21:43.971Z,100926
2017-09-04T14:24:13.030Z,100924
2017-09-04T14:26:41.139Z,100919
2017-09-04T14:29:09.533Z,100914
2017-09-04T14:31:37.897Z,100920
2017-09-04T14:34:06.931Z,100920
2017-09-04T14:36:35.023Z,100911
2017-09-04T14:39:03.665Z,100923
2017-09-04T14:41:32.094Z,100915
2017-09-04T14:46:59.729Z,100920
2017-09-04T14:49:31.421Z,100919
2017-09-04T14:51:59.571Z,100910
2017-09-04T14:54:27.968Z,100924
2017-09-04T14:56:56.816Z,100926
2017-09-04T14:59:24.920Z,100916
2017-09-04T15:01:53.261Z,100918
2017-09-04T15:04:21.682Z,100916
2017-09-04T15:06:49.900Z,100919
2017-09-04T15:09:18.095Z,100917
2017-09-04T15:11:46.216Z,100920
2017-09-04T15:14:15.222Z,100918
2017-09-04T15:16:43.407Z,100922
2017-09-04T15:19:11.597Z,100911
2017-09-04T15:21:43.253Z,100918
2017-09-04T15:24:15.044Z,100892
2017-09-04T15:26:43.370Z,100924
2017-09-04T15:29:11.475Z,100928
2017-09-04T15:31:39.586Z,100928
2017-09-04T15:34:07.912Z,100936
2017-09-04T15:36:39.177Z,100941
2017-09-04T15:39:07.538Z,100942
2017-09-04T15:41:35.636Z,100940
2017-09-04T15:44:03.821Z,100944
2017-09-04T15:46:34.883Z,100947
2017-09-04T15:49:03.789Z,100944
2017-09-04T15:51:31.895Z,100940
2017-09-04T15:54:00.102Z,100938
2017-09-04T15:56:28.458Z,100938
2017-09-04T15:58:56.692Z,100941
2017-09-04T16:01:24.846Z,100934
2017-09-04T16:03:52.944Z,100944
2017-09-04T16:06:26.713Z,100944
2017-09-04T16:08:55.062Z,100954
2017-09-04T16:11:25.528Z,100965
2017-09-04T16:13:53.615Z,100961
2017-09-04T16:16:27.727Z,100971
2017-09-04T16:18:59.645Z,100973
2017-09-04T16:21:27.784Z,100973
2017-09-04T16:23:56.639Z,100991
2017-09-04T16:29:32.424Z,100975
2017-09-04T16:32:00.543Z,100980
2017-09-04T16:34:34.196Z,100985
2017-09-04T16:37:14.265Z,100982
2017-09-04T16:39:43.852Z,100986
2017-09-04T16:42:19.884Z,100984
2017-09-04T16:44:51.671Z,100987
2017-09-04T16:47:20.127Z,100983
2017-09-04T16:49:56.844Z,100987
2017-09-04T16:52:27.799Z,100986
2017-09-04T16:55:06.875Z,100987
2017-09-04T16:57:36.128Z,100983
2017-09-04T17:00:04.265Z,100989
2017-09-04T17:02:32.351Z,100993
2017-09-04T17:05:04.392Z,100993
2017-09-04T17:07:33.419Z,100989
2017-09-04T17:10:02.239Z,100989
2017-09-04T17:12:34.762Z,100985
2017-09-04T17:15:03.531Z,100974
2017-09-04T17:17:38.884Z,100985
2017-09-04T17:20:09.844Z,100984
2017-09-04T17:22:40.261Z,100984
2017-09-04T17:25:08.973Z,100985
2017-09-04T17:27:37.126Z,100980
2017-09-04T17:30:05.463Z,100984
2017-09-04T17:32:33.558Z,100988
2017-09-04T17:35:01.689Z,100982
2017-09-04T17:37:33.176Z,100977
2017-09-04T17:40:02.187Z,100981
2017-09-04T17:42:30.339Z,100979
2017-09-04T17:44:58.700Z,100976
2017-09-04T17:47:26.981Z,100985
2017-09-04T17:49:55.528Z,100990
2017-09-04T17:52:23.656Z,100990
2017-09-04T17:54:52.758Z,100994
2017-09-04T17:57:24.371Z,101009
2017-09-04T17:59:52.720Z,101011
2017-09-04T18:02:22.678Z,101008
2017-09-04T18:04:50.796Z,101010
2017-09-04T18:07:18.920Z,101016
2017-09-04T18:09:47.018Z,101005
2017-09-04T18:12:15.443Z,101010
2017-09-04T18:14:44.040Z,101011
2017-09-04T18:17:13.164Z,101017
2017-09-04T18:19:42.343Z,101021
2017-09-04T18:22:13.548Z,101025
2017-09-04T18:24:41.836Z,101030
2017-09-04T18:27:11.312Z,101037
2017-09-04T18:29:42.931Z,101043
2017-09-04T18:32:24.637Z,101045
2017-09-04T18:34:59.108Z,101040
2017-09-04T18:37:39.131Z,101039
2017-09-04T18:40:13.901Z,101049
2017-09-04T18:42:48.548Z,101045
2017-09-04T18:45:17.916Z,101053
2017-09-04T18:47:50.712Z,101061
2017-09-04T18:50:31.328Z,101059
2017-09-04T18:52:59.632Z,101055
2017-09-04T18:55:30.568Z,101060
2017-09-04T18:58:09.630Z,101060
2017-09-04T19:00:38.079Z,101049
2017-09-04T19:03:09.892Z,101058
2017-09-04T19:05:48.530Z,101057
2017-09-04T19:08:22.257Z,101062
2017-09-04T19:10:51.414Z,101072
2017-09-04T19:13:21.872Z,101054
2017-09-04T19:15:52.802Z,101055
2017-09-04T19:18:21.260Z,101064
2017-09-04T19:20:53.968Z,101064
2017-09-04T19:23:24.068Z,101035
2017-09-04T19:25:53.158Z,101067
2017-09-04T19:28:22.660Z,101068
2017-09-04T19:30:54.001Z,101065
2017-09-04T19:33:23.358Z,101072
2017-09-04T19:36:04.816Z,101070
2017-09-04T19:38:37.105Z,101081
2017-09-04T19:41:07.763Z,101080
2017-09-04T19:43:42.184Z,101084
2017-09-04T19:46:17.164Z,101090
2017-09-04T19:48:50.427Z,101087
2017-09-04T19:51:18.585Z,101086
2017-09-04T19:53:46.708Z,101091
2017-09-04T19:56:14.849Z,101084
2017-09-04T19:58:43.851Z,101087
2017-09-04T20:01:12.165Z,101087
2017-09-04T20:03:44.693Z,101087
2017-09-04T20:06:14.799Z,101096
2017-09-04T20:08:45.076Z,101093
2017-09-04T20:11:32.484Z,101086
2017-09-04T20:14:02.872Z,101089
2017-09-04T20:16:34.125Z,101087
2017-09-04T20:19:15.876Z,101085
2017-09-04T20:21:51.230Z,101088
2017-09-04T20:24:22.287Z,101091
2017-09-04T20:26:55.516Z,101087
2017-09-04T20:29:25.656Z,101091
2017-09-04T20:31:54.190Z,101084
2017-09-04T20:34:23.451Z,101081
2017-09-04T20:36:51.907Z,101095
2017-09-04T20:39:20.295Z,101103
2017-09-04T20:41:48.433Z,101094
2017-09-04T20:44:16.556Z,101104
2017-09-04T20:46:44.731Z,101092
2017-09-04T20:49:14.256Z,101107
2017-09-04T20:51:42.384Z,101104
2017-09-04T20:54:10.588Z,101107
2017-09-04T20:56:38.811Z,101121
2017-09-04T20:59:06.916Z,101124
2017-09-04T21:01:37.959Z,101123
2017-09-04T21:04:06.070Z,101117
2017-09-04T21:06:34.171Z,101116
2017-09-04T21:09:02.289Z,101119
2017-09-04T21:11:30.452Z,101121
2017-09-04T21:13:58.553Z,101116
2017-09-04T21:16:26.699Z,101118
2017-09-04T21:18:54.825Z,101123
2017-09-04T21:21:22.960Z,101126
2017-09-04T21:23:51.340Z,101123
2017-09-04T21:26:19.463Z,101119
2017-09-04T21:28:47.560Z,101130
2017-09-04T21:31:15.991Z,101133
2017-09-04T21:33:44.340Z,101140
2017-09-04T21:36:12.723Z,101132
2017-09-04T21:38:40.846Z,101136
2017-09-04T21:41:09.300Z,101128
2017-09-04T21:43:37.768Z,101125
2017-09-04T21:46:05.885Z,101132
2017-09-04T21:48:34.299Z,101139
2017-09-04T21:51:02.688Z,101146
2017-09-04T21:53:31.373Z,101148
2017-09-04T21:55:59.627Z,101140
2017-09-04T21:58:27.724Z,101145
2017-09-04T22:00:55.861Z,101140
2017-09-04T22:03:24.593Z,101137
2017-09-04T22:05:52.935Z,101130
2017-09-04T22:08:21.016Z,101141
2017-09-04T22:10:49.135Z,101144
2017-09-04T22:13:17.371Z,101134
2017-09-04T22:15:46.271Z,101141
2017-09-04T22:18:14.688Z,101132
2017-09-04T22:20:42.787Z,101140
2017-09-04T22:23:11.074Z,101137
2017-09-04T22:25:39.225Z,101137
2017-09-04T22:28:07.596Z,101136
2017-09-04T22:30:36.021Z,101142
2017-09-04T22:33:04.138Z,101141
2017-09-04T22:35:32.256Z,101133
2017-09-04T22:38:00.644Z,101139
2017-09-04T22:40:29.677Z,101143
2017-09-04T22:42:57.898Z,101129
2017-09-04T22:45:26.063Z,101137
2017-09-04T22:47:54.486Z,101133
2017-09-04T22:50:22.839Z,101132
2017-09-04T22:52:51.932Z,101132
2017-09-04T22:55:20.062Z,101125
2017-09-04T22:57:48.177Z,101133
2017-09-04T23:00:17.213Z,101128
2017-09-04T23:02:45.345Z,101125
2017-09-04T23:05:14.266Z,101117
2017-09-04T23:07:45.616Z,101127
2017-09-04T23:10:13.711Z,101121
2017-09-04T23:12:42.075Z,101121
2017-09-04T23:15:10.208Z,101123
2017-09-04T23:17:38.304Z,101123
2017-09-04T23:20:06.420Z,101116
2017-09-04T23:22:34.576Z,101118
2017-09-04T23:25:04.523Z,101115
2017-09-04T23:27:32.612Z,101112
2017-09-04T23:30:00.720Z,101106
2017-09-04T23:32:28.821Z,101109
2017-09-04T23:34:57.025Z,101107
2017-09-04T23:37:25.132Z,101115
2017-09-04T23:39:53.471Z,101121
2017-09-04T23:42:22.409Z,101110
2017-09-04T23:44:50.733Z,101120
2017-09-04T23:47:18.847Z,101124
2017-09-04T23:49:46.960Z,101121
2017-09-04T23:52:15.072Z,101118
2017-09-04T23:54:43.442Z,101120
2017-09-04T23:57:11.799Z,101114
2017-09-04T23:59:40.725Z,101121
